Spear Flower — HOVK — position and weather

sailwx.info

Track history (hours):
 
Tides and Currents Weather Stations Pressure Air Temp Water Temp Dewpoint Dewpoint Depression Visibility Wind Speed Wind Dir Waves Ship Positions

Spear Flower

Last reported at 2018-Jan-23 00:47 UTC. Time now 2018-Jan-23 16:15 UTC.
Position N 37°02' E 023°41'.

Length 171 m; draft 8.6 m.

Type: Cargo ship. MMSI: 356761000.

Date/timePositionNaut miles runAvg speedWind from/ knotsBaromVisibWave heightAir tempDewpointWater temp
2018-Jan-23 00:47N 37°02' E 023°41'312.2
2018-Jan-23 00:30N 37°05' E 023°43'1312.0
2018-Jan-22 23:27N 37°16' E 023°52'812.1
2018-Jan-22 22:49N 37°22' E 023°57'412.1
2018-Jan-22 22:30N 37°25' E 023°60'611.9
2018-Jan-22 22:00N 37°30' E 024°03'611.8
2018-Jan-22 21:30N 37°36' E 024°07'612.0
2018-Jan-22 21:00N 37°41' E 024°12'612.0
2018-Jan-22 20:30N 37°44' E 024°18'612.0
2018-Jan-22 20:00N 37°48' E 024°24'612.0
2018-Jan-22 19:30N 37°52' E 024°29'811.8
2018-Jan-22 18:49N 37°58' E 024°36'26611.2
2018-Jan-21 19:03N 40°55' E 028°52'1 8.4
2018-Jan-21 18:55N 40°56' E 028°53'2 4.8
2018-Jan-21 18:30N 40°57' E 028°55'3 6.8
2018-Jan-21 18:00N 40°59' E 028°59'317 9.4
2018-Jan-20 08:24N 46°03' E 031°03'610.1
2018-Jan-20 07:49N 46°09' E 031°02'611.1
2018-Jan-20 07:16N 46°13' E 030°56'310.2
2018-Jan-20 07:00N 46°15' E 030°54'511.1
2018-Jan-20 06:30N 46°21' E 030°55'611.3
2018-Jan-20 06:00N 46°26' E 030°55'510.8
2018-Jan-20 05:30N 46°32' E 030°55'4 8.1
2018-Jan-20 05:00N 46°34' E 031°00'4 7.2
2018-Jan-20 04:30N 46°37' E 031°01'0 0.7
2018-Jan-20 03:59N 46°38' E 031°01'  
Track history (hours):
 
Tides and Currents Weather Stations Pressure Air Temp Water Temp Dewpoint Dewpoint Depression Visibility Wind Speed Wind Dir Waves Ship Positions

Spear Flower

Last reported at 2018-Jan-23 00:47 UTC. Time now 2018-Jan-23 16:15 UTC.
Position N 37°02' E 023°41'.

Length 171 m; draft 8.6 m.

Type: Cargo ship. MMSI: 356761000.

Date/timePositionNaut miles runAvg speedWind from/ knotsBaromVisibWave heightAir tempDewpointWater temp
2018-Jan-23 00:47N 37°02' E 023°41'312.2
2018-Jan-23 00:30N 37°05' E 023°43'1312.0
2018-Jan-22 23:27N 37°16' E 023°52'812.1
2018-Jan-22 22:49N 37°22' E 023°57'412.1
2018-Jan-22 22:30N 37°25' E 023°60'611.9
2018-Jan-22 22:00N 37°30' E 024°03'611.8
2018-Jan-22 21:30N 37°36' E 024°07'612.0
2018-Jan-22 21:00N 37°41' E 024°12'612.0
2018-Jan-22 20:30N 37°44' E 024°18'612.0
2018-Jan-22 20:00N 37°48' E 024°24'612.0
2018-Jan-22 19:30N 37°52' E 024°29'811.8
2018-Jan-22 18:49N 37°58' E 024°36'26611.2
2018-Jan-21 19:03N 40°55' E 028°52'1 8.4
2018-Jan-21 18:55N 40°56' E 028°53'2 4.8
2018-Jan-21 18:30N 40°57' E 028°55'3 6.8
2018-Jan-21 18:00N 40°59' E 028°59'317 9.4
2018-Jan-20 08:24N 46°03' E 031°03'610.1
2018-Jan-20 07:49N 46°09' E 031°02'611.1
2018-Jan-20 07:16N 46°13' E 030°56'310.2
2018-Jan-20 07:00N 46°15' E 030°54'511.1
2018-Jan-20 06:30N 46°21' E 030°55'611.3
2018-Jan-20 06:00N 46°26' E 030°55'510.8
2018-Jan-20 05:30N 46°32' E 030°55'4 8.1
2018-Jan-20 05:00N 46°34' E 031°00'4 7.2
2018-Jan-20 04:30N 46°37' E 031°01'0 0.7
2018-Jan-20 03:59N 46°38' E 031°01'  

Dump ship's entire track history